Latest Coastal Weather Observations for Rowley Shoals

IDW60701

Issued at 9:43 am WST Tuesday 22 August 2017 (issued every 10 minutes, with the page automatically refreshed every 10 minutes)

About coastal observations | Map of coastal stations | Coastal observations for WA | Marine services | Other Formats
Station Details ID: 200713 Name: ROWLEY SHOALS Lat: -17.52 Lon: 118.95 Height: 0.0 m
Data from the previous 72 hours. | See also: Recent months at Rowley Shoals
Date/Time
WST
Temp
°C
Wind Pressure Rain since
9am
mm
Weather Cloud Vis
km
Sea
Height
m
Swell
Dir  Spd
kts
Gust
kts
hPa Trend Height
m
Period
s
Dir
22/09:30am - SE 14 17 1015.7 - - - - - - - - -
22/09:00am - SE 15 17 1015.6 - - - - - - - - -
22/08:30am - SE 15 17 1015.3 - - - - - - - - -
22/08:00am - SSE 15 18 1014.9 - - - - - - - - -
22/07:30am - SSE 11 15 1013.9 - - - - - - - - -
22/07:00am - S 12 15 1013.4 - - - - - - - - -
22/06:30am - S 11 14 1013.1 - - - - - - - - -
22/06:00am - S 10 12 1013.1 - - - - - - - - -
22/05:30am - S 10 12 1012.9 - - - - - - - - -
22/05:00am - S 9 11 1012.7 - - - - - - - - -
22/04:30am - S 9 11 1012.4 - - - - - - - - -
22/04:00am - S 11 13 1012.4 - - - - - - - - -
22/03:30am - SSW 11 13 1012.4 - - - - - - - - -
22/03:00am - SSW 11 13 1012.5 - - - - - - - - -
22/02:30am - SSW 11 12 1012.7 - - - - - - - - -
22/02:00am - SSW 10 12 1012.8 - - - - - - - - -
22/01:30am - SSW 10 11 1012.9 - - - - - - - - -
22/01:00am - SSW 10 11 1012.9 - - - - - - - - -
22/12:30am - SSW 8 9 1013.4 - - - - - - - - -
22/12:00am - SSW 7 8 1013.6 - - - - - - - - -
 
Date/Time
WST
Temp
°C
Wind Pressure Rain since
9am
mm
Weather Cloud Vis
km
Sea
Height
m
Swell
Dir  Spd
kts
Gust
kts
hPa Trend Height
m
Period
s
Dir
21/11:30pm - SSW 7 8 1013.8 - - - - - - - - -
21/11:00pm - S 7 9 1013.8 - - - - - - - - -
21/10:30pm - SSE 6 8 1013.9 - - - - - - - - -
21/10:00pm - SSE 7 9 1014.1 - - - - - - - - -
21/09:30pm - SSE 8 9 1013.9 - - - - - - - - -
21/09:00pm - SSE 9 11 1013.8 - - - - - - - - -
21/08:30pm - SSE 9 10 1013.9 - - - - - - - - -
21/08:00pm - SE 9 10 1013.9 - - - - - - - - -
21/07:30pm - SE 10 11 1013.5 - - - - - - - - -
21/07:00pm - SE 10 11 1013.3 - - - - - - - - -
21/06:30pm - SE 9 11 1012.9 - - - - - - - - -
21/06:00pm - ESE 9 10 1012.9 - - - - - - - - -
21/05:30pm - ESE 9 10 1012.7 - - - - - - - - -
21/05:00pm - ESE 10 11 1012.7 - - - - - - - - -
21/04:30pm - ESE 11 13 1012.7 - - - - - - - - -
21/04:00pm - ESE 12 14 1012.6 - - - - - - - - -
21/03:30pm - ESE 13 14 1012.5 - - - - - - - - -
21/03:00pm - ESE 13 15 1012.4 - - - - - - - - -
21/02:30pm - ESE 14 15 1012.4 - - - - - - - - -
21/02:00pm - ESE 14 16 1012.4 - - - - - - - - -
21/01:30pm - ESE 14 17 1012.8 - - - - - - - - -
21/01:00pm - ESE 15 17 1013.0 - - - - - - - - -
21/12:30pm - ESE 15 17 1013.3 - - - - - - - - -
21/12:00pm - ESE 15 17 1013.6 - - - - - - - - -
21/11:30am - ESE 16 19 1014.0 - - - - - - - - -
21/11:00am - ESE 15 17 1014.3 - - - - - - - - -
21/10:30am - ESE 15 18 1014.6 - - - - - - - - -
21/10:00am - ESE 16 18 1014.7 - - - - - - - - -
21/09:30am - SE 14 16 1014.5 - - - - - - - - -
21/09:00am - SE 13 15 1014.4 - - - - - - - - -
21/08:30am - SSE 14 15 1013.7 - - - - - - - - -
21/08:00am - SSE 11 13 1013.5 - - - - - - - - -
21/07:30am - SSE 11 14 1013.4 - - - - - - - - -
21/07:00am - S 8 10 1013.1 - - - - - - - - -
21/06:30am - S 7 9 1012.9 - - - - - - - - -
21/06:00am - S 9 11 1012.8 - - - - - - - - -
21/05:30am - S 10 11 1012.3 - - - - - - - - -
21/05:00am - SSW 10 12 1012.1 - - - - - - - - -
21/04:30am - SW 8 9 1011.8 - - - - - - - - -
21/04:00am - SW 9 9 1011.8 - - - - - - - - -
21/03:30am - SW 7 8 1011.8 - - - - - - - - -
21/03:00am - SW 7 8 1011.9 - - - - - - - - -
21/02:30am - SW 6 7 1012.1 - - - - - - - - -
21/02:00am - SW 5 6 1012.1 - - - - - - - - -
21/01:30am - SSW 4 5 1012.4 - - - - - - - - -
21/01:00am - S 3 4 1012.6 - - - - - - - - -
21/12:30am - S 3 3 1012.8 - - - - - - - - -
21/12:00am - S 3 3 1013.1 - - - - - - - - -
 
Date/Time
WST
Temp
°C
Wind Pressure Rain since
9am
mm
Weather Cloud Vis
km
Sea
Height
m
Swell
Dir  Spd
kts
Gust
kts
hPa Trend Height
m
Period
s
Dir
20/11:30pm - SSE 3 3 1013.2 - - - - - - - - -
20/11:00pm - SSE 4 4 1013.4 - - - - - - - - -
20/10:30pm - SE 4 4 1013.7 - - - - - - - - -
20/10:00pm - SE 5 6 1013.8 - - - - - - - - -
20/09:30pm - SSE 6 7 1013.8 - - - - - - - - -
20/09:00pm - SSE 8 9 1013.7 - - - - - - - - -
20/08:30pm - SSE 8 9 1013.7 - - - - - - - - -
20/08:00pm - SSE 8 9 1013.5 - - - - - - - - -
20/07:30pm - SSE 8 9 1013.3 - - - - - - - - -
20/07:00pm - SSE 7 10 1013.1 - - - - - - - - -
20/06:30pm - SSE 7 9 1013.0 - - - - - - - - -
20/06:00pm - SSE 7 9 1012.9 - - - - - - - - -
20/05:30pm - SSE 7 9 1012.8 - - - - - - - - -
20/05:00pm - SSE 7 10 1012.8 - - - - - - - - -
20/04:30pm - S 7 8 1012.7 - - - - - - - - -
20/04:00pm - SSE 8 12 1012.7 - - - - - - - - -
20/03:30pm - S 8 11 1012.5 - - - - - - - - -
20/03:00pm - S 8 11 1012.5 - - - - - - - - -
20/02:30pm - S 9 12 1012.6 - - - - - - - - -
20/02:00pm - SSW 11 14 1012.7 - - - - - - - - -
20/01:30pm - SSW 11 13 1013.0 - - - - - - - - -
20/01:00pm - SSW 12 13 1013.4 - - - - - - - - -
20/12:30pm - SSW 11 13 1013.9 - - - - - - - - -
20/12:00pm - SSW 11 12 1014.2 - - - - - - - - -
20/11:30am - SSW 10 11 1014.9 - - - - - - - - -
20/11:00am - SSW 11 13 1015.2 - - - - - - - - -
20/10:30am - SSW 11 13 1015.6 - - - - - - - - -
20/10:00am - SW 12 14 1015.8 - - - - - - - - -
20/09:30am - SW 12 14 1016.1 - - - - - - - - -
20/09:00am - SW 13 14 1016.0 - - - - - - - - -
20/08:30am - SW 12 14 1015.8 - - - - - - - - -
20/08:00am - SW 13 15 1015.6 - - - - - - - - -
20/07:30am - SW 13 15 1015.2 - - - - - - - - -
20/07:00am - SW 15 17 1014.9 - - - - - - - - -
20/06:30am - SW 15 17 1014.6 - - - - - - - - -
20/06:00am - SW 15 16 1014.6 - - - - - - - - -
20/05:30am - SW 15 17 1014.3 - - - - - - - - -
20/05:00am - SW 15 16 1014.2 - - - - - - - - -
20/04:30am - SW 13 15 1014.1 - - - - - - - - -
20/04:00am - SW 13 16 1014.0 - - - - - - - - -
20/03:30am - SW 13 15 1014.2 - - - - - - - - -
20/03:00am - SW 12 14 1014.4 - - - - - - - - -
20/02:30am - SW 13 15 1014.4 - - - - - - - - -
20/02:00am - SW 14 16 1014.4 - - - - - - - - -
20/01:30am - SW 13 16 1014.6 - - - - - - - - -
20/01:00am - SW 13 16 1014.6 - - - - - - - - -
20/12:30am - SSW 13 15 1014.8 - - - - - - - - -
20/12:00am - SSW 13 16 1015.0 - - - - - - - - -
 
Date/Time
WST
Temp
°C
Wind Pressure Rain since
9am
mm
Weather Cloud Vis
km
Sea
Height
m
Swell
Dir  Spd
kts
Gust
kts
hPa Trend Height
m
Period
s
Dir
19/11:30pm - SSW 13 16 1015.3 - - - - - - - - -
19/11:00pm - SSW 14 17 1015.3 - - - - - - - - -
19/10:30pm - SSW 14 16 1015.5 - - - - - - - - -
19/10:00pm - SSW 14 17 1015.5 - - - - - - - - -
19/09:30pm - SSW 15 18 1015.2 - - - - - - - - -
19/09:00pm - SSW 15 18 1015.2 - - - - - - - - -
19/08:30pm - SSW 15 17 1015.1 - - - - - - - - -
19/08:00pm - SSW 14 16 1015.0 - - - - - - - - -
19/07:30pm - SSW 14 17 1014.7 - - - - - - - - -
19/07:00pm - SSW 14 17 1014.5 - - - - - - - - -
19/06:30pm - SSW 14 16 1013.9 - - - - - - - - -
19/06:00pm - SSW 15 17 1013.7 - - - - - - - - -
19/05:30pm - SSW 14 17 1013.5 - - - - - - - - -
19/05:00pm - SSW 13 16 1013.5 - - - - - - - - -
19/04:30pm - S 12 15 1013.2 - - - - - - - - -
19/04:00pm - SSW 12 15 1013.2 - - - - - - - - -
19/03:30pm - SSW 11 13 1013.0 - - - - - - - - -
19/03:00pm - SSW 11 14 1012.9 - - - - - - - - -
19/02:30pm - SSW 10 12 1013.0 - - - - - - - - -
19/02:00pm - S 10 13 1013.0 - - - - - - - - -
19/01:30pm - S 11 14 1013.5 - - - - - - - - -
19/01:00pm - SSW 12 14 1013.8 - - - - - - - - -
19/12:30pm - SSW 12 15 1014.2 - - - - - - - - -
19/12:00pm - SSW 12 15 1014.4 - - - - - - - - -
19/11:30am - SSW 13 15 1014.8 - - - - - - - - -
19/11:00am - SSW 13 15 1015.0 - - - - - - - - -
19/10:30am - SSW 14 16 1015.5 - - - - - - - - -
19/10:00am - SSW 13 16 1015.7 - - - - - - - - -

Other Formats:

Comma delimited format used in spreadsheet applications
http://www.bom.gov.au/fwo/IDW60701/IDW60701.94207.axf

JavaScript Object Notation format (JSON) in row-major order
http://www.bom.gov.au/fwo/IDW60701/IDW60701.94207.json